Time;durP1;ratioP1;P1;durP2;ratioP2;P2;SDS_P1;SDS_P2;PMS_P1;PMS_P2;Temp;Humidity;BMP_temperature;BMP_pressure;BME280_temperature;BME280_humidity;BME280_pressure;Samples;Min_cycle;Max_cycle;Signal;HPM_P1;HPM_P2
2021/11/29 00:02:48;;;;;;;1.48;1.00;;;20.50;48.00;;;;;;6207855;28;20081;-69
2021/11/29 00:05:49;;;;;;;1.30;0.98;;;20.60;48.00;;;;;;6210120;28;20365;-70
2021/11/29 00:08:50;;;;;;;1.45;0.90;;;20.60;48.10;;;;;;6205423;28;20037;-69
2021/11/29 00:11:50;;;;;;;1.80;1.10;;;20.50;48.00;;;;;;6205538;28;20026;-69
2021/11/29 00:14:51;;;;;;;2.28;1.08;;;20.50;48.00;;;;;;6195830;28;20146;-69
2021/11/29 00:17:52;;;;;;;1.80;1.15;;;20.50;48.00;;;;;;6208240;28;20030;-69
2021/11/29 00:20:52;;;;;;;1.33;1.10;;;20.50;48.00;;;;;;6197561;28;20029;-70
2021/11/29 00:23:53;;;;;;;1.10;0.90;;;20.50;48.00;;;;;;6205048;28;20340;-70
2021/11/29 00:26:54;;;;;;;1.10;1.00;;;20.50;48.10;;;;;;6205614;28;20136;-70
2021/11/29 00:29:54;;;;;;;1.40;0.90;;;20.50;48.10;;;;;;6214114;28;20023;-69
2021/11/29 00:32:55;;;;;;;0.80;0.80;;;20.50;48.10;;;;;;6205866;28;20018;-70
2021/11/29 00:35:56;;;;;;;1.02;0.93;;;20.50;48.10;;;;;;6215419;28;20232;-69
2021/11/29 00:38:57;;;;;;;1.95;1.05;;;20.50;48.10;;;;;;6209771;28;20237;-69
2021/11/29 00:41:57;;;;;;;1.10;0.85;;;20.50;48.10;;;;;;6179624;28;20026;-69
2021/11/29 00:44:58;;;;;;;0.85;0.85;;;20.50;48.20;;;;;;6193980;28;20050;-69
2021/11/29 00:47:59;;;;;;;1.30;1.02;;;20.50;48.20;;;;;;6203935;28;20117;-69
2021/11/29 00:51:00;;;;;;;1.63;0.98;;;20.50;48.20;;;;;;6206835;28;20050;-69
2021/11/29 00:54:00;;;;;;;1.15;0.98;;;20.50;48.20;;;;;;6209985;28;20105;-70
2021/11/29 00:57:01;;;;;;;1.00;0.90;;;20.50;48.20;;;;;;6203880;28;20037;-70
2021/11/29 01:00:07;;;;;;;1.33;1.00;;;20.50;48.20;;;;;;6215546;28;20057;-69
2021/11/29 01:03:08;;;;;;;0.98;0.88;;;20.50;48.20;;;;;;6192408;28;20058;-70
2021/11/29 01:06:09;;;;;;;1.00;0.90;;;20.50;48.20;;;;;;6208102;28;20038;-70
2021/11/29 01:09:09;;;;;;;0.60;0.60;;;20.50;48.30;;;;;;6200114;28;20061;-69
2021/11/29 01:12:10;;;;;;;1.02;0.93;;;20.50;48.20;;;;;;6204624;28;20037;-70
2021/11/29 01:15:18;;;;;;;1.20;1.10;;;20.50;48.30;;;;;;6194957;28;20090;-69
2021/11/29 01:18:19;;;;;;;1.15;0.80;;;20.50;48.30;;;;;;6211674;28;20026;-68
2021/11/29 01:21:19;;;;;;;1.15;0.93;;;20.50;48.30;;;;;;6214833;28;20049;-69
2021/11/29 01:24:20;;;;;;;1.60;0.90;;;20.50;48.30;;;;;;6214729;28;20061;-68
2021/11/29 01:27:21;;;;;;;1.20;1.10;;;20.50;48.30;;;;;;6203581;28;20065;-69
2021/11/29 01:30:21;;;;;;;1.05;0.90;;;20.50;48.30;;;;;;6210748;28;20030;-70
2021/11/29 01:33:22;;;;;;;1.50;1.02;;;20.50;48.30;;;;;;6230217;28;20025;-70
2021/11/29 01:36:23;;;;;;;1.30;0.90;;;20.50;48.30;;;;;;6220674;28;20162;-70
2021/11/29 01:39:24;;;;;;;0.98;0.70;;;20.50;48.30;;;;;;6207781;28;20073;-69
2021/11/29 01:42:25;;;;;;;1.48;1.00;;;20.50;48.30;;;;;;6208037;28;20033;-70
2021/11/29 01:45:28;;;;;;;1.92;1.00;;;20.50;48.40;;;;;;6218784;28;20511;-70
2021/11/29 01:48:29;;;;;;;0.80;0.70;;;20.50;48.40;;;;;;6217323;28;20026;-70
2021/11/29 01:51:30;;;;;;;1.17;0.82;;;20.50;48.40;;;;;;6197998;28;20018;-70
2021/11/29 01:54:30;;;;;;;1.10;0.90;;;20.50;48.40;;;;;;6219394;28;20014;-70
2021/11/29 01:57:31;;;;;;;1.33;0.90;;;20.50;48.40;;;;;;6218141;28;20477;-70
2021/11/29 02:00:39;;;;;;;1.10;1.00;;;20.50;48.40;;;;;;6231758;28;20188;-68
2021/11/29 02:03:42;;;;;;;1.40;1.00;;;20.50;48.40;;;;;;6210617;28;20021;-70
2021/11/29 02:06:43;;;;;;;0.95;0.85;;;20.50;48.40;;;;;;6207387;28;20469;-69
2021/11/29 02:09:44;;;;;;;0.98;0.80;;;20.50;48.40;;;;;;6215909;28;20117;-70
2021/11/29 02:12:45;;;;;;;0.80;0.80;;;20.50;48.50;;;;;;6207581;28;20053;-69
2021/11/29 02:15:52;;;;;;;0.68;0.65;;;20.50;48.40;;;;;;6194919;28;20050;-67
2021/11/29 02:18:53;;;;;;;1.08;0.98;;;20.50;48.50;;;;;;6219725;28;20022;-69
2021/11/29 02:21:54;;;;;;;1.15;0.90;;;20.50;48.50;;;;;;6218379;28;20509;-70
2021/11/29 02:24:56;;;;;;;1.02;0.77;;;20.50;48.50;;;;;;6199503;28;20034;-70
2021/11/29 02:27:57;;;;;;;2.25;1.02;;;20.50;48.50;;;;;;6219081;28;20055;-69
2021/11/29 02:30:58;;;;;;;1.20;1.00;;;20.50;48.50;;;;;;6205767;28;20036;-68
2021/11/29 02:34:05;;;;;;;1.48;1.20;;;20.50;48.50;;;;;;6219751;28;20026;-70
2021/11/29 02:37:06;;;;;;;1.05;0.90;;;20.50;48.50;;;;;;6216764;28;20049;-69
2021/11/29 02:40:07;;;;;;;1.45;1.08;;;20.50;48.50;;;;;;6193970;28;20031;-70
2021/11/29 02:43:08;;;;;;;1.20;0.93;;;20.50;48.50;;;;;;6203913;28;20660;-70
2021/11/29 02:46:09;;;;;;;0.93;0.70;;;20.50;48.50;;;;;;6217337;28;20129;-70
2021/11/29 02:49:12;;;;;;;0.82;0.80;;;20.50;48.50;;;;;;6214970;28;20662;-70
2021/11/29 02:52:16;;;;;;;0.80;0.80;;;20.50;48.60;;;;;;6211218;28;20026;-69
2021/11/29 02:55:16;;;;;;;0.88;0.80;;;20.50;48.60;;;;;;6217204;28;20022;-70
2021/11/29 02:58:17;;;;;;;1.13;0.93;;;20.50;48.60;;;;;;6203308;28;20447;-70
2021/11/29 03:01:18;;;;;;;1.30;0.93;;;20.50;48.60;;;;;;6192683;28;20053;-69
2021/11/29 03:04:23;;;;;;;0.90;0.80;;;20.50;48.60;;;;;;6215606;28;20018;-70
2021/11/29 03:07:23;;;;;;;1.00;0.93;;;20.50;48.60;;;;;;6200103;28;20081;-66
2021/11/29 03:10:24;;;;;;;1.20;1.00;;;20.50;48.60;;;;;;6194721;28;20034;-69
2021/11/29 03:13:25;;;;;;;0.75;0.70;;;20.40;48.60;;;;;;6209759;28;20031;-70
2021/11/29 03:16:25;;;;;;;0.98;0.80;;;20.50;48.60;;;;;;6199171;28;20491;-70
2021/11/29 03:19:34;;;;;;;1.27;0.95;;;20.40;48.60;;;;;;6200345;28;20082;-70
2021/11/29 03:22:35;;;;;;;1.48;1.10;;;20.40;48.60;;;;;;6215106;28;20387;-71
2021/11/29 03:25:37;;;;;;;1.25;0.90;;;20.40;48.60;;;;;;6208281;28;20113;-69
2021/11/29 03:28:41;;;;;;;0.95;0.85;;;20.50;48.60;;;;;;6213877;28;20044;-69
2021/11/29 03:31:44;;;;;;;0.85;0.85;;;20.50;48.70;;;;;;6206481;28;20025;-69
2021/11/29 03:34:45;;;;;;;1.00;0.90;;;20.40;48.60;;;;;;6217362;28;20745;-70
2021/11/29 03:37:45;;;;;;;0.75;0.75;;;20.40;48.60;;;;;;6203891;28;20023;-69
2021/11/29 03:40:46;;;;;;;1.00;0.80;;;20.50;48.70;;;;;;6174770;28;20170;-69
2021/11/29 03:43:47;;;;;;;1.25;0.98;;;20.40;48.60;;;;;;6212147;28;20026;-69
2021/11/29 03:46:50;;;;;;;1.10;0.80;;;20.40;48.60;;;;;;6216899;28;20342;-70
2021/11/29 03:49:51;;;;;;;1.20;0.85;;;20.50;48.70;;;;;;6209018;28;20026;-70
2021/11/29 03:52:52;;;;;;;1.25;1.00;;;20.40;48.70;;;;;;6214693;28;20034;-70
2021/11/29 03:55:53;;;;;;;0.80;0.70;;;20.40;48.70;;;;;;6199763;28;20025;-69
2021/11/29 03:58:55;;;;;;;1.15;0.88;;;20.50;48.80;;;;;;6217270;28;20432;-70
2021/11/29 04:01:55;;;;;;;1.05;0.88;;;20.40;48.70;;;;;;6205264;28;20108;-70
2021/11/29 04:04:56;;;;;;;1.13;0.98;;;20.40;48.70;;;;;;6215917;28;20026;-70
2021/11/29 04:07:57;;;;;;;1.10;1.00;;;20.50;48.80;;;;;;6193112;28;20395;-69
2021/11/29 04:10:58;;;;;;;0.98;0.88;;;20.40;48.70;;;;;;6193010;28;20027;-70
2021/11/29 04:13:59;;;;;;;1.08;0.80;;;20.40;48.70;;;;;;6207460;28;20038;-69
2021/11/29 04:17:00;;;;;;;0.80;0.80;;;20.40;48.70;;;;;;6200765;28;20421;-69
2021/11/29 04:20:03;;;;;;;1.42;0.90;;;20.50;48.80;;;;;;6197494;28;20018;-71
2021/11/29 04:23:03;;;;;;;1.27;0.88;;;20.40;48.70;;;;;;6205750;28;20480;-70
2021/11/29 04:26:05;;;;;;;1.00;0.90;;;20.40;48.70;;;;;;6193234;28;20393;-70
2021/11/29 04:29:16;;;;;;;1.10;0.88;;;20.40;48.70;;;;;;6231475;28;20084;-69
2021/11/29 04:32:18;;;;;;;1.00;0.90;;;20.40;48.70;;;;;;6204380;28;20022;-70
2021/11/29 04:35:19;;;;;;;1.13;0.98;;;20.40;48.70;;;;;;6217078;28;20094;-70
2021/11/29 04:38:21;;;;;;;0.75;0.70;;;20.40;48.80;;;;;;6216511;28;20025;-70
2021/11/29 04:41:21;;;;;;;0.77;0.73;;;20.40;48.70;;;;;;6194591;28;20022;-69
2021/11/29 04:44:22;;;;;;;1.25;0.95;;;20.40;48.80;;;;;;6191461;28;20084;-69
2021/11/29 04:47:23;;;;;;;0.93;0.70;;;20.40;48.70;;;;;;6201031;28;20026;-70
2021/11/29 04:50:24;;;;;;;0.93;0.80;;;20.40;48.70;;;;;;6206885;28;20032;-70
2021/11/29 04:53:25;;;;;;;1.20;0.88;;;20.40;48.70;;;;;;6215297;28;20630;-69
2021/11/29 04:56:26;;;;;;;0.85;0.80;;;20.40;48.80;;;;;;6214819;28;20034;-69
2021/11/29 04:59:26;;;;;;;1.33;1.00;;;20.40;48.80;;;;;;6222667;28;20030;-70
2021/11/29 05:02:27;;;;;;;1.17;0.80;;;20.40;48.80;;;;;;6211175;28;20030;-69
2021/11/29 05:05:28;;;;;;;0.85;0.70;;;20.40;48.80;;;;;;6218995;28;20541;-70
2021/11/29 05:08:29;;;;;;;1.42;1.00;;;20.40;48.80;;;;;;6197315;28;20361;-69
2021/11/29 05:11:30;;;;;;;1.08;0.90;;;20.40;48.80;;;;;;6191135;28;20033;-69
2021/11/29 05:14:30;;;;;;;1.25;0.90;;;20.40;48.80;;;;;;6206700;28;20053;-69
2021/11/29 05:17:31;;;;;;;0.93;0.80;;;20.40;48.80;;;;;;6213763;28;20030;-69
2021/11/29 05:20:32;;;;;;;0.80;0.70;;;20.40;48.70;;;;;;6220847;28;20087;-70
2021/11/29 05:23:33;;;;;;;1.20;1.00;;;20.40;48.60;;;;;;6221160;28;20034;-69
2021/11/29 05:26:34;;;;;;;1.00;0.90;;;20.50;48.60;;;;;;6215069;28;20814;-70
2021/11/29 05:29:35;;;;;;;1.25;0.95;;;20.50;48.50;;;;;;6236015;28;20041;-67
2021/11/29 05:32:36;;;;;;;0.95;0.82;;;20.50;48.50;;;;;;6209745;28;20033;-68
2021/11/29 05:35:37;;;;;;;1.45;1.10;;;20.50;48.50;;;;;;6196417;28;20098;-68
2021/11/29 05:38:38;;;;;;;1.25;1.00;;;20.50;48.50;;;;;;6216013;28;20523;-68
2021/11/29 05:41:39;;;;;;;1.15;0.98;;;20.50;48.40;;;;;;6186617;28;20650;-68
2021/11/29 05:44:39;;;;;;;1.13;1.00;;;20.50;48.30;;;;;;6234765;28;20060;-68
2021/11/29 05:47:42;;;;;;;1.08;0.95;;;20.50;48.40;;;;;;6207062;28;20087;-68
2021/11/29 05:50:43;;;;;;;1.27;0.88;;;20.50;48.40;;;;;;6203351;28;20100;-68
2021/11/29 05:53:44;;;;;;;1.77;1.00;;;20.50;48.40;;;;;;6208185;28;20030;-68
2021/11/29 05:56:44;;;;;;;1.30;1.00;;;20.50;48.40;;;;;;6209518;28;20029;-68
2021/11/29 05:59:46;;;;;;;1.17;0.90;;;20.50;48.30;;;;;;6218102;28;20026;-68
2021/11/29 06:02:48;;;;;;;1.40;1.00;;;20.50;48.30;;;;;;6211022;28;20018;-68
2021/11/29 06:05:49;;;;;;;1.40;1.13;;;20.50;48.30;;;;;;6213243;28;20476;-70
2021/11/29 06:08:50;;;;;;;1.13;0.90;;;20.50;48.30;;;;;;6206873;28;20478;-69
2021/11/29 06:11:50;;;;;;;4.50;1.00;;;20.50;48.30;;;;;;6227358;28;20026;-68
2021/11/29 06:14:51;;;;;;;2.17;1.00;;;20.50;48.30;;;;;;6194779;28;20051;-68
2021/11/29 06:17:52;;;;;;;1.40;0.82;;;20.50;48.40;;;;;;6209044;28;20034;-68
2021/11/29 06:20:52;;;;;;;2.45;1.10;;;20.50;48.40;;;;;;6209999;28;20054;-69
2021/11/29 06:23:53;;;;;;;1.10;0.80;;;20.50;48.50;;;;;;6234147;28;20061;-68
2021/11/29 06:26:54;;;;;;;1.52;1.08;;;20.60;48.70;;;;;;6202414;28;20026;-68
2021/11/29 06:29:55;;;;;;;1.52;0.90;;;20.60;48.80;;;;;;6194712;28;20395;-68
2021/11/29 06:32:55;;;;;;;1.40;1.00;;;20.60;48.80;;;;;;6197142;28;20030;-69
2021/11/29 06:35:59;;;;;;;1.52;1.10;;;20.60;49.60;;;;;;6193593;28;20242;-68
2021/11/29 06:39:01;;;;;;;1.50;0.90;;;20.60;49.00;;;;;;6197463;28;20262;-68
2021/11/29 06:42:04;;;;;;;1.65;1.00;;;20.60;49.00;;;;;;6195810;28;20069;-68
2021/11/29 06:45:05;;;;;;;1.35;0.95;;;20.60;49.10;;;;;;6193400;28;20026;-68
2021/11/29 06:48:06;;;;;;;3.05;0.98;;;20.60;49.10;;;;;;6193580;28;20064;-68
2021/11/29 06:51:08;;;;;;;1.13;0.85;;;20.60;49.20;;;;;;6192525;28;20031;-68
2021/11/29 06:54:09;;;;;;;1.88;0.93;;;20.60;49.20;;;;;;6195806;28;20456;-68
2021/11/29 06:57:10;;;;;;;1.92;0.90;;;20.60;49.20;;;;;;6200655;28;20106;-68
2021/11/29 07:00:15;;;;;;;1.35;1.00;;;20.60;49.50;;;;;;6206798;28;20510;-68
2021/11/29 07:03:16;;;;;;;3.05;0.95;;;20.60;49.30;;;;;;6201927;28;20480;-68
2021/11/29 07:06:17;;;;;;;1.73;1.00;;;20.60;49.30;;;;;;6198366;28;20057;-69
2021/11/29 07:09:17;;;;;;;11.80;1.05;;;20.60;49.50;;;;;;6198292;28;20030;-68
2021/11/29 07:12:18;;;;;;;1.60;0.80;;;20.70;49.50;;;;;;6197858;28;20023;-69
2021/11/29 07:15:19;;;;;;;2.05;1.00;;;20.70;49.50;;;;;;6197962;28;20042;-68
2021/11/29 07:18:20;;;;;;;1.20;0.90;;;20.70;49.50;;;;;;6183776;28;20116;-70
2021/11/29 07:21:21;;;;;;;3.17;0.90;;;20.60;49.40;;;;;;6197841;28;20023;-69
2021/11/29 07:24:22;;;;;;;1.25;0.90;;;20.70;49.50;;;;;;6201274;28;20030;-69
2021/11/29 07:27:25;;;;;;;1.35;0.82;;;20.70;49.50;;;;;;6203024;28;20539;-69
2021/11/29 07:30:27;;;;;;;1.00;0.90;;;20.60;49.50;;;;;;6194737;28;20023;-69
2021/11/29 07:33:29;;;;;;;1.48;1.08;;;20.60;49.50;;;;;;6201962;28;20023;-69
2021/11/29 07:36:30;;;;;;;1.40;0.95;;;20.60;49.50;;;;;;6199071;28;20386;-69
2021/11/29 07:39:31;;;;;;;2.03;1.20;;;20.70;49.50;;;;;;6196165;28;20029;-69
2021/11/29 07:42:32;;;;;;;1.08;0.90;;;20.70;49.50;;;;;;6197756;28;20069;-69
2021/11/29 07:45:34;;;;;;;2.05;0.95;;;20.70;49.60;;;;;;6199745;28;20062;-69
2021/11/29 07:48:35;;;;;;;3.30;1.13;;;20.70;49.50;;;;;;6203114;28;20037;-69
2021/11/29 07:51:36;;;;;;;0.80;0.70;;;20.70;49.60;;;;;;6210004;28;20048;-69
2021/11/29 07:54:37;;;;;;;1.05;0.82;;;20.70;49.60;;;;;;6194529;28;20106;-69
2021/11/29 07:57:39;;;;;;;0.93;0.82;;;20.70;49.60;;;;;;6216480;28;20034;-69
2021/11/29 08:00:40;;;;;;;2.92;0.88;;;20.70;49.60;;;;;;6201120;28;20041;-69
2021/11/29 08:03:40;;;;;;;1.25;0.90;;;20.70;49.60;;;;;;6195587;28;20497;-68
2021/11/29 08:06:41;;;;;;;1.83;1.00;;;20.70;49.70;;;;;;6196489;28;20377;-68
2021/11/29 08:09:41;;;;;;;3.50;1.05;;;20.70;49.60;;;;;;6204141;28;20034;-68
2021/11/29 08:12:42;;;;;;;1.30;1.00;;;20.70;49.60;;;;;;6205308;28;20029;-68
2021/11/29 08:15:43;;;;;;;1.60;1.00;;;20.70;49.70;;;;;;6199780;28;20050;-68
2021/11/29 08:18:44;;;;;;;4.03;0.80;;;20.70;49.80;;;;;;6215207;28;20076;-68
2021/11/29 08:21:44;;;;;;;5.30;0.80;;;20.70;49.60;;;;;;6203435;28;20033;-67
2021/11/29 08:24:45;;;;;;;1.23;1.00;;;20.70;49.60;;;;;;6211787;28;20030;-68
2021/11/29 08:27:46;;;;;;;1.30;0.95;;;20.70;49.70;;;;;;6226624;28;20085;-68
2021/11/29 08:30:48;;;;;;;4.05;1.13;;;20.70;49.70;;;;;;6221121;28;20472;-67
2021/11/29 08:33:48;;;;;;;4.13;1.00;;;20.70;49.70;;;;;;6217415;28;20472;-67
2021/11/29 08:36:49;;;;;;;1.42;0.88;;;20.70;49.80;;;;;;6211847;28;20018;-66
2021/11/29 08:39:50;;;;;;;1.67;1.05;;;20.70;49.80;;;;;;6211407;28;20054;-67
2021/11/29 08:42:51;;;;;;;1.50;1.10;;;20.70;49.80;;;;;;6201582;28;20029;-68
2021/11/29 08:45:52;;;;;;;2.22;1.13;;;20.70;49.70;;;;;;6218459;28;20033;-68
2021/11/29 08:48:54;;;;;;;3.38;1.10;;;20.70;49.90;;;;;;6220956;28;20030;-68
2021/11/29 08:51:56;;;;;;;4.80;1.20;;;20.80;50.20;;;;;;6205807;28;20112;-67
2021/11/29 08:54:56;;;;;;;1.25;0.85;;;20.80;50.20;;;;;;6201661;28;20026;-66
2021/11/29 08:57:59;;;;;;;1.83;1.20;;;20.80;49.90;;;;;;6215271;28;20018;-68
2021/11/29 09:01:00;;;;;;;4.82;1.20;;;20.80;50.00;;;;;;6219014;28;20030;-67
2021/11/29 09:04:01;;;;;;;2.35;1.20;;;20.80;50.00;;;;;;6219279;28;20034;-68
2021/11/29 09:07:03;;;;;;;2.78;1.20;;;20.70;50.00;;;;;;6207189;28;20388;-66
2021/11/29 09:10:06;;;;;;;4.00;1.30;;;20.80;50.00;;;;;;6198266;28;20026;-68
2021/11/29 09:13:07;;;;;;;1.90;1.10;;;20.80;50.10;;;;;;6208545;28;20029;-68
2021/11/29 09:16:09;;;;;;;1.92;1.40;;;20.70;49.90;;;;;;6202459;28;20078;-68
2021/11/29 09:19:11;;;;;;;2.80;1.30;;;20.70;50.00;;;;;;6223315;28;20033;-68
2021/11/29 09:22:12;;;;;;;2.03;1.48;;;20.80;50.20;;;;;;6218516;28;20160;-68
2021/11/29 09:25:12;;;;;;;1.15;1.00;;;20.70;50.20;;;;;;6202277;28;20483;-68
2021/11/29 09:28:14;;;;;;;1.60;1.10;;;20.70;50.00;;;;;;6215906;28;20034;-76
2021/11/29 09:31:15;;;;;;;1.60;1.40;;;20.70;50.60;;;;;;6210344;28;20034;-68
2021/11/29 09:34:15;;;;;;;2.80;2.20;;;20.70;50.10;;;;;;6202377;28;20106;-69
2021/11/29 09:37:19;;;;;;;5.15;2.60;;;20.70;49.50;;;;;;6208601;28;20064;-68
2021/11/29 09:40:23;;;;;;;3.22;2.30;;;20.70;49.90;;;;;;6207724;28;20103;-68
2021/11/29 09:43:24;;;;;;;17.67;2.80;;;20.70;49.80;;;;;;6216765;28;20313;-68
2021/11/29 09:46:26;;;;;;;6.97;1.88;;;20.70;49.90;;;;;;6203240;28;20026;-67
2021/11/29 09:49:39;;;;;;;2.60;1.88;;;20.70;49.90;;;;;;6216676;28;20515;-67
2021/11/29 09:52:40;;;;;;;6.53;2.55;;;20.70;50.00;;;;;;6219268;28;20038;-66
2021/11/29 09:55:42;;;;;;;3.90;3.50;;;20.70;48.90;;;;;;6218687;28;20053;-68
2021/11/29 09:58:42;;;;;;;8.38;6.03;;;20.60;48.80;;;;;;6230511;28;20026;-68
2021/11/29 10:01:44;;;;;;;8.52;6.53;;;20.60;47.80;;;;;;6222396;28;20049;-68
2021/11/29 10:04:55;;;;;;;9.88;4.70;;;20.60;47.70;;;;;;6198318;28;20042;-68
2021/11/29 10:07:56;;;;;;;6.82;4.88;;;20.60;46.30;;;;;;6214352;28;20379;-68
2021/11/29 10:10:59;;;;;;;7.22;4.50;;;20.60;46.50;;;;;;6236389;28;20033;-68
2021/11/29 10:14:05;;;;;;;5.63;3.60;;;20.60;46.90;;;;;;6210049;28;20518;-68
2021/11/29 10:17:05;;;;;;;6.85;3.50;;;20.70;47.30;;;;;;6212537;28;20110;-68
2021/11/29 10:20:07;;;;;;;6.97;3.33;;;20.70;47.30;;;;;;6236044;28;20025;-68
2021/11/29 10:23:08;;;;;;;6.40;3.28;;;20.70;47.60;;;;;;6207932;28;20415;-68
2021/11/29 10:26:18;;;;;;;4.05;3.10;;;20.70;47.70;;;;;;6211364;28;20083;-68
2021/11/29 10:29:23;;;;;;;3.65;2.38;;;20.70;47.60;;;;;;6205086;28;20057;-67
2021/11/29 10:32:43;;;;;;;3.90;2.60;;;20.70;47.80;;;;;;6196672;28;20028;-68
2021/11/29 10:35:44;;;;;;;3.95;2.50;;;20.70;47.90;;;;;;6214836;28;20081;-66
2021/11/29 10:38:50;;;;;;;4.35;2.30;;;20.70;47.90;;;;;;6196506;28;20531;-68
2021/11/29 10:41:55;;;;;;;3.10;2.10;;;20.70;48.10;;;;;;6201096;28;20026;-68
2021/11/29 10:44:55;;;;;;;3.65;2.53;;;20.70;48.20;;;;;;6219070;28;20036;-67
2021/11/29 10:47:56;;;;;;;2.58;2.10;;;20.70;48.00;;;;;;6209492;28;20030;-68
2021/11/29 10:51:12;;;;;;;3.72;2.10;;;20.70;48.10;;;;;;6206488;28;20026;-66
2021/11/29 10:54:16;;;;;;;3.88;2.10;;;20.70;48.20;;;;;;6233813;28;20026;-68
2021/11/29 10:57:21;;;;;;;3.43;2.00;;;20.70;48.10;;;;;;6208499;28;20026;-68
2021/11/29 11:00:22;;;;;;;;;;;20.70;48.20;;;;;;6216397;28;20105;-68
2021/11/29 11:03:22;;;;;;;2.50;1.80;;;20.70;48.10;;;;;;6222167;28;19905;-67
2021/11/29 11:06:26;;;;;;;3.03;2.30;;;20.70;48.20;;;;;;6194961;28;20049;-68
2021/11/29 11:09:40;;;;;;;2.72;1.65;;;20.70;48.20;;;;;;6214216;28;20507;-68
2021/11/29 11:12:41;;;;;;;4.63;2.50;;;20.70;48.50;;;;;;6210393;28;20029;-68
2021/11/29 11:15:43;;;;;;;2.72;2.20;;;20.70;48.60;;;;;;6195472;28;20467;-68
2021/11/29 11:18:44;;;;;;;8.05;2.28;;;20.70;48.30;;;;;;6219453;28;20383;-67
2021/11/29 11:21:45;;;;;;;3.13;2.20;;;20.70;48.20;;;;;;6213144;28;20049;-68
2021/11/29 11:24:57;;;;;;;3.30;2.33;;;20.70;48.30;;;;;;6203119;28;20165;-68
2021/11/29 11:28:05;;;;;;;8.48;2.30;;;20.70;48.10;;;;;;6212474;28;20475;-67
2021/11/29 11:31:23;;;;;;;7.22;2.20;;;20.70;48.20;;;;;;6208056;28;20026;-68
2021/11/29 11:34:33;;;;;;;4.68;2.25;;;20.80;48.40;;;;;;6213483;28;20500;-68
2021/11/29 11:37:41;;;;;;;6.15;2.60;;;20.80;48.60;;;;;;6207102;28;20104;-67
2021/11/29 11:40:45;;;;;;;13.05;2.75;;;20.80;48.40;;;;;;6186844;28;20113;-67
2021/11/29 11:43:47;;;;;;;7.70;2.25;;;20.80;48.40;;;;;;6216637;28;20072;-67
2021/11/29 11:46:49;;;;;;;6.65;1.95;;;20.80;48.40;;;;;;6216415;28;20021;-68
2021/11/29 11:49:50;;;;;;;9.40;2.70;;;20.80;48.60;;;;;;6199382;28;20026;-68
2021/11/29 11:52:54;;;;;;;4.97;2.25;;;20.80;48.60;;;;;;6205979;28;20033;-68
2021/11/29 11:55:54;;;;;;;8.02;2.33;;;20.80;48.30;;;;;;6193801;28;20021;-68
2021/11/29 11:59:08;;;;;;;6.97;2.30;;;20.80;48.60;;;;;;6204946;28;20030;-68
2021/11/29 12:02:16;;;;;;;4.45;1.92;;;20.80;48.60;;;;;;6204349;28;20026;-67
2021/11/29 12:05:24;;;;;;;5.25;1.90;;;20.80;48.60;;;;;;6202143;28;20105;-67
2021/11/29 12:08:31;;;;;;;3.58;2.00;;;20.80;48.70;;;;;;6195960;28;20034;-68
2021/11/29 12:11:44;;;;;;;8.30;2.13;;;20.80;48.70;;;;;;6198779;28;20037;-67
2021/11/29 12:14:44;;;;;;;7.55;2.17;;;20.80;48.80;;;;;;6196419;28;20100;-68
2021/11/29 12:17:48;;;;;;;3.55;2.05;;;20.80;48.80;;;;;;6201794;28;20450;-68
2021/11/29 12:21:13;;;;;;;7.70;1.85;;;20.80;48.70;;;;;;6202381;28;20053;-68
2021/11/29 12:24:16;;;;;;;;;;;20.80;48.70;;;;;;6207813;28;20065;-67
2021/11/29 12:27:17;;;;;;;4.18;2.30;;;20.80;48.70;;;;;;6204674;28;19951;-67
2021/11/29 12:30:31;;;;;;;6.15;2.10;;;20.80;49.00;;;;;;6202866;28;20113;-68
2021/11/29 12:33:44;;;;;;;2.65;1.80;;;20.80;49.20;;;;;;6191943;28;20018;-67
2021/11/29 12:37:00;;;;;;;2.83;2.00;;;20.80;49.20;;;;;;6207945;28;20373;-68
2021/11/29 12:40:14;;;;;;;2.88;1.98;;;20.80;49.20;;;;;;6185179;28;20041;-66
2021/11/29 12:43:43;;;;;;;5.75;1.88;;;20.80;49.20;;;;;;6195015;28;20030;-66
2021/11/29 12:46:46;;;;;;;6.03;1.92;;;20.80;49.30;;;;;;6211995;28;20025;-68
2021/11/29 12:49:46;;;;;;;5.65;2.28;;;20.90;49.50;;;;;;6222183;28;20495;-67
2021/11/29 12:52:47;;;;;;;3.95;1.70;;;21.00;49.80;;;;;;6208412;28;20101;-67
2021/11/29 12:55:55;;;;;;;1.80;1.60;;;21.00;49.30;;;;;;6197998;28;20084;-66
2021/11/29 12:59:04;;;;;;;5.40;1.95;;;21.10;49.20;;;;;;6198312;28;20384;-67
2021/11/29 13:02:25;;;;;;;4.15;2.03;;;21.00;49.30;;;;;;6206125;28;20041;-67
2021/11/29 13:05:28;;;;;;;4.38;2.78;;;21.00;49.30;;;;;;6183477;28;20026;-67
2021/11/29 13:08:37;;;;;;;10.02;4.45;;;21.00;49.90;;;;;;6191164;28;20389;-67
2021/11/29 13:11:38;;;;;;;18.35;10.45;;;21.00;50.90;;;;;;6208787;28;20369;-67
2021/11/29 13:14:38;;;;;;;16.25;10.15;;;21.00;51.40;;;;;;6196844;28;20335;-67
2021/11/29 13:17:42;;;;;;;16.88;11.23;;;21.00;51.10;;;;;;6209032;28;20479;-66
2021/11/29 13:20:47;;;;;;;20.83;11.52;;;21.00;51.60;;;;;;6203469;28;20134;-67
2021/11/29 13:24:07;;;;;;;17.35;11.20;;;20.90;51.70;;;;;;6199600;28;20026;-67
2021/11/29 13:27:11;;;;;;;16.17;10.38;;;20.90;51.60;;;;;;6203433;28;20073;-67
2021/11/29 13:30:12;;;;;;;18.23;10.90;;;20.90;51.90;;;;;;6208803;28;20511;-67
2021/11/29 13:33:16;;;;;;;16.45;10.57;;;20.90;51.40;;;;;;6209913;28;20038;-67
2021/11/29 13:36:17;;;;;;;17.25;9.63;;;20.90;52.20;;;;;;6213387;28;20030;-68
2021/11/29 13:39:19;;;;;;;16.60;9.25;;;20.90;51.90;;;;;;6209494;28;20034;-67
2021/11/29 13:42:25;;;;;;;13.40;8.05;;;20.90;51.30;;;;;;6220387;28;20029;-67
2021/11/29 13:45:28;;;;;;;12.27;7.53;;;20.90;51.20;;;;;;6210716;28;20031;-67
2021/11/29 13:48:29;;;;;;;11.20;7.20;;;20.90;51.00;;;;;;6208280;28;20027;-66
2021/11/29 13:51:30;;;;;;;10.60;6.60;;;20.90;50.70;;;;;;6201150;28;20491;-67
2021/11/29 13:54:32;;;;;;;9.35;5.85;;;20.80;50.70;;;;;;6201705;28;20031;-66
2021/11/29 13:57:41;;;;;;;8.85;5.43;;;20.80;49.70;;;;;;6209284;28;20430;-66
2021/11/29 14:00:51;;;;;;;8.98;4.50;;;20.80;48.20;;;;;;6196402;28;20022;-66
2021/11/29 14:03:51;;;;;;;8.18;4.15;;;20.70;47.80;;;;;;6198745;28;20471;-66
2021/11/29 14:07:01;;;;;;;7.70;4.28;;;20.70;47.60;;;;;;6205149;28;20036;-66
2021/11/29 14:10:02;;;;;;;5.78;4.03;;;20.70;45.90;;;;;;6204044;28;20037;-67
2021/11/29 14:13:03;;;;;;;5.07;3.33;;;20.70;45.40;;;;;;6199926;28;20492;-67
2021/11/29 14:16:41;;;;;;;5.07;3.58;;;20.70;45.20;;;;;;6205355;28;20078;-67
2021/11/29 14:19:42;;;;;;;5.50;4.05;;;20.70;45.30;;;;;;6209954;28;20026;-66
2021/11/29 14:22:51;;;;;;;5.43;4.00;;;20.60;44.30;;;;;;6201835;28;20022;-67
2021/11/29 14:25:52;;;;;;;8.45;3.60;;;20.60;43.50;;;;;;6207819;28;20026;-66
2021/11/29 14:28:54;;;;;;;6.30;3.70;;;20.60;43.10;;;;;;6203787;28;20514;-67
2021/11/29 14:31:59;;;;;;;5.10;3.75;;;20.60;42.80;;;;;;6204453;28;20093;-67
2021/11/29 14:35:00;;;;;;;;;;;20.60;42.60;;;;;;6196978;28;20029;-68
2021/11/29 14:38:02;;;;;;;6.72;3.88;;;20.60;42.30;;;;;;6207290;28;19909;-68
2021/11/29 14:41:03;;;;;;;6.88;3.55;;;20.60;41.40;;;;;;6203282;28;20041;-68
2021/11/29 14:44:04;;;;;;;4.07;3.10;;;20.60;42.30;;;;;;6211781;28;20168;-68
2021/11/29 14:47:13;;;;;;;5.43;2.83;;;20.60;42.40;;;;;;6207377;28;20026;-68
2021/11/29 14:50:30;;;;;;;4.13;2.05;;;20.60;42.20;;;;;;6204412;28;20408;-68
2021/11/29 14:53:30;;;;;;;3.08;2.00;;;20.60;42.30;;;;;;6198368;28;20026;-68
2021/11/29 14:56:32;;;;;;;4.15;2.50;;;20.60;42.60;;;;;;6212207;28;20096;-67
2021/11/29 14:59:32;;;;;;;3.47;1.98;;;20.60;42.90;;;;;;6206389;28;20100;-68
2021/11/29 15:02:33;;;;;;;2.30;1.90;;;20.60;43.30;;;;;;6213424;28;20030;-67
2021/11/29 15:05:36;;;;;;;4.90;2.03;;;20.60;43.90;;;;;;6204541;28;20092;-68
2021/11/29 15:08:36;;;;;;;2.38;1.65;;;20.60;44.00;;;;;;6201738;28;20052;-68
2021/11/29 15:11:44;;;;;;;2.42;1.50;;;20.60;44.10;;;;;;6202054;28;20022;-68
2021/11/29 15:14:45;;;;;;;2.55;1.52;;;20.60;44.10;;;;;;6207140;28;20121;-67
2021/11/29 15:17:53;;;;;;;2.65;1.83;;;20.60;44.20;;;;;;6209747;28;20091;-68
2021/11/29 15:20:54;;;;;;;2.40;1.50;;;20.60;44.40;;;;;;6199507;28;20025;-68
2021/11/29 15:23:56;;;;;;;2.17;1.42;;;20.60;44.60;;;;;;6200339;28;20027;-68
2021/11/29 15:27:17;;;;;;;2.40;1.60;;;20.60;44.60;;;;;;6206973;28;20109;-68
2021/11/29 15:30:28;;;;;;;2.00;1.40;;;20.70;44.90;;;;;;6193592;28;20081;-68
2021/11/29 15:33:32;;;;;;;2.83;1.42;;;20.70;45.00;;;;;;6217795;28;20491;-67
2021/11/29 15:36:33;;;;;;;2.35;1.40;;;20.70;45.20;;;;;;6204840;28;20029;-67
2021/11/29 15:39:34;;;;;;;2.55;1.58;;;20.70;45.30;;;;;;6199462;28;20041;-68
2021/11/29 15:42:34;;;;;;;1.92;1.40;;;20.70;45.50;;;;;;6207872;28;20475;-67
2021/11/29 15:46:05;;;;;;;1.75;1.38;;;20.70;45.60;;;;;;6200582;28;20029;-67
2021/11/29 15:49:08;;;;;;;3.75;1.40;;;20.70;45.80;;;;;;6206893;28;20438;-68
2021/11/29 15:52:09;;;;;;;1.75;1.40;;;20.70;46.00;;;;;;6197652;28;20022;-68
2021/11/29 15:55:10;;;;;;;1.90;1.42;;;20.70;46.00;;;;;;6206812;28;20468;-71